Time;durP1;ratioP1;P1;durP2;ratioP2;P2;SDS_P1;SDS_P2;PMS_P1;PMS_P2;Temp;Humidity;BMP_temperature;BMP_pressure;BME280_temperature;BME280_humidity;BME280_pressure;Samples;Min_cycle;Max_cycle;Signal;HPM_P1;HPM_P2
2023/04/04 00:01:09;;;;;;;;;;;;;;;-0.70;78.93;97106.22;5008862;28;19922;-70
2023/04/04 00:03:35;;;;;;;;;;;;;;;-0.73;79.78;97110.28;5003744;28;19972;-70
2023/04/04 00:06:00;;;;;;;;;;;;;;;-0.84;79.69;97109.56;5004057;28;19917;-71
2023/04/04 00:08:26;;;;;;;;;;;;;;;-0.74;79.98;97103.28;4998661;28;19929;-71
2023/04/04 00:10:56;;;;;;;;;;;;;;;-0.84;79.92;97095.34;5004186;28;19921;-71
2023/04/04 00:13:21;;;;;;;;;;;;;;;-0.85;80.24;97091.81;4997514;28;19917;-70
2023/04/04 00:15:47;;;;;;;;;;;;;;;-0.89;80.21;97084.63;5002777;28;19922;-70
2023/04/04 00:18:12;;;;;;;;;;;;;;;-0.84;80.49;97089.94;5006047;28;19968;-70
2023/04/04 00:20:37;;;;;;;;;;;;;;;-0.89;80.05;97092.69;5003501;28;19917;-70
2023/04/04 00:23:03;;;;;;;;;;;;;;;-1.03;80.87;97104.06;4983824;28;20008;-70
2023/04/04 00:25:28;;;;;;;;;;;;;;;-0.95;81.10;97105.38;5003511;28;19986;-70
2023/04/04 00:27:54;;;;;;;;;;;;;;;-1.06;81.12;97090.38;5003305;28;19963;-71
2023/04/04 00:30:19;;;;;;;;;;;;;;;-1.07;81.29;97096.88;4998251;28;20309;-71
2023/04/04 00:32:45;;;;;;;;;;;;;;;-1.18;81.82;97098.84;5003555;28;19921;-72
2023/04/04 00:35:10;;;;;;;;;;;;;;;-1.20;82.40;97101.81;4997669;28;19957;-71
2023/04/04 00:37:36;;;;;;;;;;;;;;;-1.21;81.84;97080.56;5002811;28;19917;-70
2023/04/04 00:40:03;;;;;;;;;;;;;;;-1.20;82.07;97093.75;5005692;28;19925;-71
2023/04/04 00:42:28;;;;;;;;;;;;;;;-1.11;81.83;97096.63;5020254;28;20301;-71
2023/04/04 00:44:54;;;;;;;;;;;;;;;-1.25;81.86;97091.09;5010000;28;19918;-71
2023/04/04 00:47:23;;;;;;;;;;;;;;;-1.29;82.16;97083.88;4997748;28;20039;-69
2023/04/04 00:49:48;;;;;;;;;;;;;;;-1.23;81.76;97094.28;5002642;28;19929;-70
2023/04/04 00:52:14;;;;;;;;;;;;;;;-1.22;81.79;97092.44;5005497;28;19924;-70
2023/04/04 00:54:39;;;;;;;;;;;;;;;-1.31;81.48;97086.03;5022387;28;19990;-70
2023/04/04 00:57:05;;;;;;;;;;;;;;;-1.20;81.16;97092.94;5017190;28;20583;-70
2023/04/04 00:59:31;;;;;;;;;;;;;;;-1.35;81.39;97091.97;5021256;28;19956;-70
2023/04/04 01:01:57;;;;;;;;;;;;;;;-1.26;80.80;97085.97;5014800;28;19960;-70
2023/04/04 01:04:22;;;;;;;;;;;;;;;-1.35;81.52;97072.38;5021061;28;20317;-70
2023/04/04 01:06:48;;;;;;;;;;;;;;;-1.39;81.44;97084.75;5028984;28;19917;-70
2023/04/04 01:09:14;;;;;;;;;;;;;;;-1.29;81.40;97078.50;5025423;28;19971;-70
2023/04/04 01:11:40;;;;;;;;;;;;;;;-1.33;81.41;97082.81;5025139;28;19980;-70
2023/04/04 01:14:05;;;;;;;;;;;;;;;-1.45;81.92;97077.81;5020822;28;19917;-69
2023/04/04 01:16:30;;;;;;;;;;;;;;;-1.35;81.21;97075.06;5025508;28;19921;-70
2023/04/04 01:18:56;;;;;;;;;;;;;;;-1.38;81.31;97078.28;5026091;28;19928;-70
2023/04/04 01:21:22;;;;;;;;;;;;;;;-1.47;81.68;97067.34;5032221;28;19936;-70
2023/04/04 01:24:00;;;;;;;;;;;;;;;-1.38;81.62;97064.84;5012063;28;19924;-70
2023/04/04 01:26:26;;;;;;;;;;;;;;;-1.48;80.81;97056.88;5018001;28;20464;-70
2023/04/04 01:28:52;;;;;;;;;;;;;;;-1.55;81.02;97055.31;5025439;28;19968;-69
2023/04/04 01:31:21;;;;;;;;;;;;;;;-1.60;81.35;97055.34;5019531;28;19967;-70
2023/04/04 01:33:53;;;;;;;;;;;;;;;-1.60;81.81;97052.66;5025573;28;20318;-72
2023/04/04 01:36:42;;;;;;;;;;;;;;;-1.76;81.85;97064.56;5025441;28;19940;-70
2023/04/04 01:39:12;;;;;;;;;;;;;;;-1.67;82.25;97046.78;5023910;28;19917;-70
2023/04/04 01:41:38;;;;;;;;;;;;;;;-1.67;81.54;97052.16;5023494;28;19924;-70
2023/04/04 01:44:03;;;;;;;;;;;;;;;-1.68;81.74;97045.16;5017246;28;19917;-70
2023/04/04 01:46:30;;;;;;;;;;;;;;;-1.70;81.15;97044.66;5004539;28;19921;-69
2023/04/04 01:48:55;;;;;;;;;;;;;;;-1.80;81.38;97055.44;5005183;28;20380;-70
2023/04/04 01:51:21;;;;;;;;;;;;;;;-1.78;81.56;97045.25;5004567;28;20014;-70
2023/04/04 01:53:46;;;;;;;;;;;;;;;-1.80;81.63;97047.41;5025070;28;19921;-70
2023/04/04 01:56:12;;;;;;;;;;;;;;;-1.65;81.01;97031.19;5002771;28;19917;-71
2023/04/04 01:58:37;;;;;;;;;;;;;;;-1.75;81.25;97037.44;5028886;28;19932;-69
2023/04/04 02:01:02;;;;;;;;;;;;;;;-1.86;81.79;97035.09;5029030;28;19917;-70
2023/04/04 02:03:27;;;;;;;;;;;;;;;-1.88;82.14;97039.94;5011011;28;20400;-71
2023/04/04 02:05:53;;;;;;;;;;;;;;;-1.73;81.29;97037.16;5003792;28;19928;-68
2023/04/04 02:08:18;;;;;;;;;;;;;;;-1.83;81.17;97035.34;5000091;28;20359;-70
2023/04/04 02:10:43;;;;;;;;;;;;;;;-1.81;81.13;97035.06;5006165;28;19917;-70
2023/04/04 02:13:09;;;;;;;;;;;;;;;-1.86;81.54;97025.16;5000344;28;19944;-70
2023/04/04 02:15:34;;;;;;;;;;;;;;;-1.82;81.38;97038.81;5004565;28;19960;-69
2023/04/04 02:17:59;;;;;;;;;;;;;;;-1.79;81.39;97017.59;5002422;28;19932;-69
2023/04/04 02:20:25;;;;;;;;;;;;;;;-1.86;81.40;97024.34;4999528;28;19975;-69
2023/04/04 02:22:51;;;;;;;;;;;;;;;-1.97;81.92;97024.41;5004654;28;19917;-68
2023/04/04 02:25:16;;;;;;;;;;;;;;;-1.89;82.35;97016.84;4999962;28;19918;-69
2023/04/04 02:27:42;;;;;;;;;;;;;;;-1.86;81.75;97030.50;5004602;28;19929;-70
2023/04/04 02:30:07;;;;;;;;;;;;;;;-1.88;81.62;97013.09;5000480;28;19925;-70
2023/04/04 02:32:32;;;;;;;;;;;;;;;-1.98;81.71;97013.94;5005431;28;20343;-69
2023/04/04 02:34:58;;;;;;;;;;;;;;;-1.87;81.48;97020.06;5004360;28;19967;-69
2023/04/04 02:37:23;;;;;;;;;;;;;;;-1.92;81.41;97010.97;5009268;28;19922;-71
2023/04/04 02:39:48;;;;;;;;;;;;;;;-1.92;81.65;97012.84;5015268;28;20382;-69
2023/04/04 02:42:13;;;;;;;;;;;;;;;-2.05;82.29;97022.31;5008775;28;20231;-70
2023/04/04 02:44:39;;;;;;;;;;;;;;;-2.03;82.47;97001.38;5007155;28;20041;-69
2023/04/04 02:47:05;;;;;;;;;;;;;;;-2.06;82.76;97015.34;5001350;28;19917;-69
2023/04/04 02:49:30;;;;;;;;;;;;;;;-2.04;82.54;97020.44;5025250;28;19959;-70
2023/04/04 02:51:56;;;;;;;;;;;;;;;-2.02;82.21;97016.38;5012974;28;19917;-69
2023/04/04 02:54:21;;;;;;;;;;;;;;;-2.14;82.81;97018.63;5011020;28;20148;-69
2023/04/04 02:56:47;;;;;;;;;;;;;;;-2.16;83.16;97007.34;5025008;28;19953;-69
2023/04/04 02:59:12;;;;;;;;;;;;;;;-2.11;83.24;97018.03;4994852;28;20011;-70
2023/04/04 03:01:37;;;;;;;;;;;;;;;-2.06;83.31;97012.66;5012065;28;19918;-70
2023/04/04 03:04:04;;;;;;;;;;;;;;;-2.13;82.87;97004.09;4999663;28;19972;-69
2023/04/04 03:06:32;;;;;;;;;;;;;;;-2.13;83.69;97007.59;5003081;28;19924;-70
2023/04/04 03:08:58;;;;;;;;;;;;;;;-2.17;83.49;97009.22;5004200;28;19921;-70
2023/04/04 03:11:23;;;;;;;;;;;;;;;-2.22;83.42;97009.25;4998969;28;19944;-69
2023/04/04 03:13:50;;;;;;;;;;;;;;;-2.25;83.83;97012.50;5003871;28;19918;-70
2023/04/04 03:16:16;;;;;;;;;;;;;;;-2.22;83.86;97006.56;4999944;28;20239;-70
2023/04/04 03:18:42;;;;;;;;;;;;;;;-2.17;83.95;97006.53;5004891;28;20390;-70
2023/04/04 03:21:07;;;;;;;;;;;;;;;-2.26;84.27;97013.56;5001164;28;19917;-69
2023/04/04 03:23:32;;;;;;;;;;;;;;;-2.22;83.96;97003.88;5003889;28;20281;-70
2023/04/04 03:25:58;;;;;;;;;;;;;;;-2.20;83.80;97003.59;5003648;28;19917;-69
2023/04/04 03:28:23;;;;;;;;;;;;;;;-2.26;83.91;97012.78;4997661;28;20354;-70
2023/04/04 03:30:49;;;;;;;;;;;;;;;-2.27;84.47;97014.63;5006124;28;20004;-69
2023/04/04 03:33:14;;;;;;;;;;;;;;;-2.34;84.87;97016.81;4994245;28;19925;-69
2023/04/04 03:35:39;;;;;;;;;;;;;;;-2.28;84.88;97013.03;5009605;28;20765;-68
2023/04/04 03:38:05;;;;;;;;;;;;;;;-2.21;84.02;97015.44;4998501;28;19917;-69
2023/04/04 03:40:30;;;;;;;;;;;;;;;-2.31;84.84;97016.28;5002957;28;20505;-69
2023/04/04 03:42:57;;;;;;;;;;;;;;;-2.30;85.23;97007.16;5003613;28;19926;-69
2023/04/04 03:45:23;;;;;;;;;;;;;;;-2.28;85.02;96998.84;5005859;28;19921;-70
2023/04/04 03:47:48;;;;;;;;;;;;;;;-2.29;84.95;97010.63;5026633;28;20090;-70
2023/04/04 03:50:13;;;;;;;;;;;;;;;-2.40;85.39;97013.34;5012350;28;19921;-70
2023/04/04 03:52:39;;;;;;;;;;;;;;;-2.28;84.99;97009.56;5035801;28;20028;-70
2023/04/04 03:55:06;;;;;;;;;;;;;;;-2.37;85.15;97012.81;5024263;28;19950;-69
2023/04/04 03:57:31;;;;;;;;;;;;;;;-2.44;85.62;97019.56;5006416;28;19921;-71
2023/04/04 03:59:56;;;;;;;;;;;;;;;-2.43;86.41;97013.91;5014651;28;19971;-69
2023/04/04 04:02:22;;;;;;;;;;;;;;;-2.43;86.21;97019.28;5002390;28;19967;-69
2023/04/04 04:04:47;;;;;;;;;;;;;;;-2.59;87.11;97025.75;5003599;28;19948;-69
2023/04/04 04:07:12;;;;;;;;;;;;;;;-2.51;86.98;97017.16;4998517;28;19921;-68
2023/04/04 04:09:38;;;;;;;;;;;;;;;-2.69;87.80;97023.94;5003469;28;19925;-69
2023/04/04 04:12:03;;;;;;;;;;;;;;;-2.66;88.06;97015.34;4998938;28;19963;-69
2023/04/04 04:14:29;;;;;;;;;;;;;;;-2.69;88.07;97032.75;5003303;28;20385;-70
2023/04/04 04:16:55;;;;;;;;;;;;;;;-2.74;88.47;97037.34;4984354;28;20020;-69
2023/04/04 04:19:21;;;;;;;;;;;;;;;-2.75;88.78;97033.06;4998421;28;21709;-70
2023/04/04 04:21:46;;;;;;;;;;;;;;;-2.80;88.70;97033.88;5003607;28;20370;-71
2023/04/04 04:24:12;;;;;;;;;;;;;;;-2.84;89.31;97037.38;4997537;28;19917;-70
2023/04/04 04:26:37;;;;;;;;;;;;;;;-2.83;89.14;97038.97;5002698;28;19917;-69
2023/04/04 04:29:02;;;;;;;;;;;;;;;-2.84;89.56;97043.53;5002007;28;20004;-69
2023/04/04 04:31:28;;;;;;;;;;;;;;;-2.86;89.72;97029.63;5001786;28;20008;-69
2023/04/04 04:33:53;;;;;;;;;;;;;;;-2.87;89.72;97036.03;5002757;28;19925;-69
2023/04/04 04:36:18;;;;;;;;;;;;;;;-2.86;89.68;97042.19;4997670;28;19922;-68
2023/04/04 04:38:43;;;;;;;;;;;;;;;-2.81;89.47;97044.88;5005400;28;20322;-69
2023/04/04 04:41:09;;;;;;;;;;;;;;;-2.92;90.12;97049.44;5001997;28;19957;-69
2023/04/04 04:43:35;;;;;;;;;;;;;;;-2.87;89.17;97046.75;5012815;28;19921;-69
2023/04/04 04:46:01;;;;;;;;;;;;;;;-2.85;89.99;97033.09;5041349;28;19917;-69
2023/04/04 04:48:26;;;;;;;;;;;;;;;-2.90;89.39;97042.75;5034375;28;19921;-70
2023/04/04 04:50:51;;;;;;;;;;;;;;;-2.96;90.10;97046.50;5028005;28;19924;-69
2023/04/04 04:53:17;;;;;;;;;;;;;;;-2.90;90.01;97047.28;5023447;28;19944;-71
2023/04/04 04:55:42;;;;;;;;;;;;;;;-2.91;90.12;97046.50;5021760;28;19918;-69
2023/04/04 04:58:09;;;;;;;;;;;;;;;-2.94;90.28;97047.03;5003987;28;19917;-70
2023/04/04 05:00:35;;;;;;;;;;;;;;;-2.88;90.29;97042.50;5016481;28;19921;-70
2023/04/04 05:03:00;;;;;;;;;;;;;;;-2.98;90.65;97043.28;5024084;28;19983;-70
2023/04/04 05:05:26;;;;;;;;;;;;;;;-3.03;90.63;97034.47;5016765;28;20032;-69
2023/04/04 05:07:51;;;;;;;;;;;;;;;-2.93;90.66;97047.84;5023331;28;19972;-70
2023/04/04 05:10:17;;;;;;;;;;;;;;;-2.96;90.80;97053.75;5019168;28;20493;-70
2023/04/04 05:12:43;;;;;;;;;;;;;;;-2.91;90.71;97049.19;5018146;28;20305;-69
2023/04/04 05:15:11;;;;;;;;;;;;;;;-2.84;90.24;97056.94;5018215;28;20301;-73
2023/04/04 05:17:37;;;;;;;;;;;;;;;-2.92;90.38;97055.63;5023862;28;19968;-70
2023/04/04 05:20:03;;;;;;;;;;;;;;;-2.91;90.39;97059.91;5018927;28;19917;-70
2023/04/04 05:22:29;;;;;;;;;;;;;;;-2.67;89.60;97061.19;5022878;28;20275;-70
2023/04/04 05:24:54;;;;;;;;;;;;;;;-2.29;87.45;97061.59;5025795;28;19960;-70
2023/04/04 05:27:19;;;;;;;;;;;;;;;-2.15;86.01;97049.19;5018443;28;19964;-70
2023/04/04 05:29:46;;;;;;;;;;;;;;;-1.77;84.37;97063.75;5022614;28;20329;-70
2023/04/04 05:32:11;;;;;;;;;;;;;;;-1.73;82.57;97054.09;5018270;28;20013;-69
2023/04/04 05:34:36;;;;;;;;;;;;;;;-1.73;83.94;97061.31;5023438;28;20317;-70
2023/04/04 05:37:02;;;;;;;;;;;;;;;-1.75;83.16;97058.09;5024892;28;19948;-69
2023/04/04 05:39:27;;;;;;;;;;;;;;;-1.33;80.53;97058.63;5025555;28;19917;-68
2023/04/04 05:41:53;;;;;;;;;;;;;;;-1.08;78.32;97046.84;5028367;28;20478;-69
2023/04/04 05:44:18;;;;;;;;;;;;;;;-0.85;78.27;97078.38;5016324;28;20378;-71
2023/04/04 05:46:43;;;;;;;;;;;;;;;-0.59;77.10;97056.63;5021740;28;20400;-72
2023/04/04 05:49:08;;;;;;;;;;;;;;;-0.55;76.07;97067.63;5017334;28;20087;-71
2023/04/04 05:51:34;;;;;;;;;;;;;;;-1.07;78.67;97057.34;5019566;28;19917;-70
2023/04/04 05:53:59;;;;;;;;;;;;;;;-0.64;75.91;97064.75;5020263;28;19953;-70
2023/04/04 05:56:24;;;;;;;;;;;;;;;-1.29;80.31;97073.91;4999168;28;20384;-70
2023/04/04 05:58:50;;;;;;;;;;;;;;;-1.17;78.67;97066.31;5020991;28;19936;-69
2023/04/04 06:01:16;;;;;;;;;;;;;;;-0.47;73.82;97058.91;5024217;28;19917;-70
2023/04/04 06:03:41;;;;;;;;;;;;;;;-0.97;78.50;97067.22;5040525;28;20373;-70
2023/04/04 06:06:07;;;;;;;;;;;;;;;-0.99;77.52;97056.75;5032253;28;19970;-69
2023/04/04 06:08:32;;;;;;;;;;;;;;;-1.01;78.36;97060.78;5026771;28;20322;-70
2023/04/04 06:10:57;;;;;;;;;;;;;;;-1.23;78.91;97072.78;5009008;28;19921;-69
2023/04/04 06:13:23;;;;;;;;;;;;;;;-0.73;76.01;97061.88;5020731;28;19913;-69
2023/04/04 06:15:48;;;;;;;;;;;;;;;-0.78;77.89;97069.97;5026950;28;19924;-69
2023/04/04 06:18:16;;;;;;;;;;;;;;;-0.55;75.73;97073.78;5013799;28;19925;-70
2023/04/04 06:20:41;;;;;;;;;;;;;;;-0.74;76.43;97062.16;5015474;28;19917;-70
2023/04/04 06:23:08;;;;;;;;;;;;;;;-0.13;73.49;97069.53;5019604;28;19979;-70
2023/04/04 06:25:34;;;;;;;;;;;;;;;0.11;72.41;97066.00;5026153;28;20008;-70
2023/04/04 06:27:59;;;;;;;;;;;;;;;-0.44;75.36;97067.19;5026848;28;19960;-70
2023/04/04 06:30:25;;;;;;;;;;;;;;;0.01;71.98;97066.16;5020381;28;20585;-70
2023/04/04 06:32:51;;;;;;;;;;;;;;;0.02;72.46;97067.75;5025188;28;20267;-69
2023/04/04 06:35:16;;;;;;;;;;;;;;;-0.33;73.43;97078.66;5018877;28;19924;-70
2023/04/04 06:37:41;;;;;;;;;;;;;;;-0.26;75.08;97067.56;5008521;28;19938;-70
2023/04/04 06:40:07;;;;;;;;;;;;;;;-0.44;73.29;97072.59;5019787;28;20403;-70
2023/04/04 06:42:32;;;;;;;;;;;;;;;-0.29;74.66;97058.16;5024429;28;19924;-70
2023/04/04 06:44:58;;;;;;;;;;;;;;;0.02;71.49;97065.88;5026273;28;19917;-71
2023/04/04 06:47:23;;;;;;;;;;;;;;;0.64;69.45;97078.47;5020328;28;20432;-70
2023/04/04 06:49:49;;;;;;;;;;;;;;;0.07;72.42;97071.16;5009708;28;19929;-70
2023/04/04 06:52:14;;;;;;;;;;;;;;;0.48;70.30;97067.13;5016880;28;19924;-69
2023/04/04 06:54:39;;;;;;;;;;;;;;;1.51;64.91;97063.50;5007518;28;20322;-69
2023/04/04 06:57:05;;;;;;;;;;;;;;;0.68;68.25;97056.00;5017511;28;19952;-70
2023/04/04 06:59:30;;;;;;;;;;;;;;;0.79;70.17;97075.53;5007577;28;20408;-68
2023/04/04 07:01:56;;;;;;;;;;;;;;;0.71;70.60;97068.13;5033585;28;20416;-69
2023/04/04 07:04:21;;;;;;;;;;;;;;;0.49;70.77;97072.22;5003500;28;20003;-69
2023/04/04 07:06:46;;;;;;;;;;;;;;;1.07;67.91;97073.75;5013601;28;20021;-69
2023/04/04 07:09:12;;;;;;;;;;;;;;;1.04;67.63;97076.22;5022845;28;19951;-70
2023/04/04 07:11:37;;;;;;;;;;;;;;;0.62;69.08;97069.88;5019662;28;19924;-70
2023/04/04 07:14:02;;;;;;;;;;;;;;;0.38;70.66;97062.69;5023959;28;19947;-72
2023/04/04 07:16:27;;;;;;;;;;;;;;;0.09;71.59;97079.78;5023114;28;20004;-73
2023/04/04 07:18:53;;;;;;;;;;;;;;;0.52;69.89;97051.97;5025703;28;19980;-70
2023/04/04 07:21:19;;;;;;;;;;;;;;;-0.04;72.50;97067.00;5019787;28;19924;-71
2023/04/04 07:23:44;;;;;;;;;;;;;;;2.14;65.47;97074.72;5023272;28;19924;-70
2023/04/04 07:26:10;;;;;;;;;;;;;;;2.91;62.85;97081.13;5019894;28;19918;-69
2023/04/04 07:28:36;;;;;;;;;;;;;;;0.50;68.25;97076.50;5024969;28;19921;-71
2023/04/04 07:31:02;;;;;;;;;;;;;;;0.57;70.28;97082.31;5008919;28;19924;-70
2023/04/04 07:33:27;;;;;;;;;;;;;;;2.27;63.84;97082.00;5022767;28;19924;-71
2023/04/04 07:35:53;;;;;;;;;;;;;;;1.45;66.66;97078.22;5024412;28;20325;-71
2023/04/04 07:38:18;;;;;;;;;;;;;;;2.53;64.12;97076.84;5001452;28;19917;-71
2023/04/04 07:40:44;;;;;;;;;;;;;;;2.03;63.71;97083.03;5019037;28;19917;-71
2023/04/04 07:43:09;;;;;;;;;;;;;;;1.63;62.54;97073.84;5019206;28;19974;-68
2023/04/04 07:45:35;;;;;;;;;;;;;;;1.56;65.32;97074.22;5019243;28;20286;-70
2023/04/04 07:48:00;;;;;;;;;;;;;;;1.10;66.48;97064.28;5024271;28;19917;-69
2023/04/04 07:50:26;;;;;;;;;;;;;;;0.89;66.71;97077.28;5000843;28;19993;-70
2023/04/04 07:52:53;;;;;;;;;;;;;;;1.84;65.24;97085.84;5024454;28;19917;-70
2023/04/04 07:55:19;;;;;;;;;;;;;;;1.88;63.73;97086.03;5020704;28;19917;-71
2023/04/04 07:57:44;;;;;;;;;;;;;;;1.59;63.33;97076.34;5023871;28;19929;-70
2023/04/04 08:00:10;;;;;;;;;;;;;;;1.64;63.33;97086.22;5020327;28;19921;-70
2023/04/04 08:02:38;;;;;;;;;;;;;;;2.03;61.56;97084.94;5016464;28;19925;-71
2023/04/04 08:05:05;;;;;;;;;;;;;;;3.11;60.61;97083.31;5020076;28;19928;-70
2023/04/04 08:07:30;;;;;;;;;;;;;;;2.38;58.86;97071.78;5006079;28;20373;-70
2023/04/04 08:09:55;;;;;;;;;;;;;;;1.86;61.43;97064.72;5025111;28;19964;-70
2023/04/04 08:12:21;;;;;;;;;;;;;;;2.54;58.19;97069.50;5015801;28;19917;-70
2023/04/04 08:14:46;;;;;;;;;;;;;;;2.05;58.55;97082.72;5007339;28;19963;-72
2023/04/04 08:17:11;;;;;;;;;;;;;;;1.82;58.04;97068.31;5019694;28;19921;-70
2023/04/04 08:19:37;;;;;;;;;;;;;;;2.69;56.34;97074.59;5027043;28;19952;-71
2023/04/04 08:22:02;;;;;;;;;;;;;;;3.63;54.53;97071.97;5022287;28;19917;-71
2023/04/04 08:24:27;;;;;;;;;;;;;;;3.41;54.50;97075.53;5019251;28;19917;-71
2023/04/04 08:26:53;;;;;;;;;;;;;;;3.37;52.99;97067.25;5022261;28;19953;-72
2023/04/04 08:29:18;;;;;;;;;;;;;;;3.27;52.50;97080.25;5018959;28;20280;-70
2023/04/04 08:31:44;;;;;;;;;;;;;;;2.80;53.69;97073.22;5025192;28;19917;-70
2023/04/04 08:34:09;;;;;;;;;;;;;;;2.41;53.68;97073.84;5017957;28;19921;-69
2023/04/04 08:36:34;;;;;;;;;;;;;;;2.88;54.00;97082.50;5023879;28;20285;-72
2023/04/04 08:39:00;;;;;;;;;;;;;;;3.06;54.15;97081.53;5024513;28;19921;-71
2023/04/04 08:41:26;;;;;;;;;;;;;;;3.11;52.62;97094.13;5020415;28;19929;-71
2023/04/04 08:43:53;;;;;;;;;;;;;;;3.40;49.59;97080.16;5016596;28;19928;-71
2023/04/04 08:46:20;;;;;;;;;;;;;;;3.40;51.95;97082.06;5000160;28;20008;-71
2023/04/04 08:48:47;;;;;;;;;;;;;;;3.41;51.86;97080.97;5017454;28;19951;-71
2023/04/04 08:51:13;;;;;;;;;;;;;;;3.78;50.81;97078.88;5006765;28;20341;-71
2023/04/04 08:53:38;;;;;;;;;;;;;;;3.71;49.34;97082.06;5023518;28;19917;-71
2023/04/04 08:56:04;;;;;;;;;;;;;;;3.53;49.75;97083.06;5017390;28;19917;-71
2023/04/04 08:58:29;;;;;;;;;;;;;;;3.87;49.34;97093.28;5004006;28;19941;-71
2023/04/04 09:00:55;;;;;;;;;;;;;;;3.55;48.87;97091.72;5003499;28;20325;-71
2023/04/04 09:03:28;;;;;;;;;;;;;;;4.77;48.73;97083.84;5008991;28;19917;-70
2023/04/04 09:05:57;;;;;;;;;;;;;;;4.84;46.14;97078.75;5002512;28;19972;-70
2023/04/04 09:08:25;;;;;;;;;;;;;;;5.16;46.74;97069.31;4997342;28;19926;-71
2023/04/04 09:10:51;;;;;;;;;;;;;;;6.48;43.81;97064.13;5002269;28;19921;-71
2023/04/04 09:13:16;;;;;;;;;;;;;;;6.01;43.29;97086.00;5011543;28;20011;-71
2023/04/04 09:15:46;;;;;;;;;;;;;;;4.73;47.95;97088.34;5021862;28;20044;-71
2023/04/04 09:18:11;;;;;;;;;;;;;;;3.92;48.16;97081.50;4996782;28;19952;-72
2023/04/04 09:20:40;;;;;;;;;;;;;;;3.38;48.07;97081.56;5013849;28;19953;-71
2023/04/04 09:23:12;;;;;;;;;;;;;;;3.44;50.08;97083.84;5016991;28;20354;-72
2023/04/04 09:25:51;;;;;;;;;;;;;;;3.69;49.74;97094.31;5021049;28;20016;-71
2023/04/04 09:28:17;;;;;;;;;;;;;;;4.51;48.32;97075.72;5017723;28;19917;-70
2023/04/04 09:30:43;;;;;;;;;;;;;;;4.44;49.39;97076.19;5026949;28;20008;-69
2023/04/04 09:33:10;;;;;;;;;;;;;;;4.42;48.56;97074.91;5020248;28;19921;-71
2023/04/04 09:35:37;;;;;;;;;;;;;;;4.56;47.21;97083.72;5026356;28;19936;-71
2023/04/04 09:38:05;;;;;;;;;;;;;;;4.58;47.56;97089.63;5026585;28;20456;-71
2023/04/04 09:40:31;;;;;;;;;;;;;;;4.75;48.31;97088.81;4995401;28;19917;-71
2023/04/04 09:43:00;;;;;;;;;;;;;;;5.72;45.33;97091.03;5027470;28;20328;-69
2023/04/04 09:45:25;;;;;;;;;;;;;;;7.34;43.64;97088.25;5024994;28;19921;-70
2023/04/04 09:47:51;;;;;;;;;;;;;;;7.41;41.41;97088.50;5028768;28;20428;-70
2023/04/04 09:50:23;;;;;;;;;;;;;;;7.07;41.39;97077.59;5006398;28;20252;-70
2023/04/04 09:52:49;;;;;;;;;;;;;;;7.79;42.48;97076.56;5009367;28;19955;-71
2023/04/04 09:55:15;;;;;;;;;;;;;;;6.07;42.41;97082.78;5016928;28;20298;-69
2023/04/04 09:57:40;;;;;;;;;;;;;;;5.54;43.21;97084.88;5005783;28;19925;-69
2023/04/04 10:00:08;;;;;;;;;;;;;;;5.72;44.29;97082.91;5015829;28;19968;-71
2023/04/04 10:02:35;;;;;;;;;;;;;;;6.56;46.21;97074.19;5016516;28;19929;-71
2023/04/04 10:05:02;;;;;;;;;;;;;;;6.55;39.79;97083.47;5007041;28;20102;-71
2023/04/04 10:07:28;;;;;;;;;;;;;;;4.91;45.42;97089.94;5002116;28;19917;-70
2023/04/04 10:09:54;;;;;;;;;;;;;;;7.75;41.35;97087.34;5005414;28;19929;-70
2023/04/04 10:12:26;;;;;;;;;;;;;;;8.29;39.95;97080.88;5000254;28;19921;-70
2023/04/04 10:14:59;;;;;;;;;;;;;;;8.69;38.68;97091.09;5006996;28;19928;-70
2023/04/04 10:17:29;;;;;;;;;;;;;;;6.72;39.74;97081.72;4999318;28;20461;-70
2023/04/04 10:19:55;;;;;;;;;;;;;;;6.82;41.62;97084.06;5009100;28;20012;-71
2023/04/04 10:22:22;;;;;;;;;;;;;;;6.36;40.75;97080.41;5023040;28;19921;-70
2023/04/04 10:24:47;;;;;;;;;;;;;;;5.69;41.92;97082.75;5026310;28;19921;-71
2023/04/04 10:27:13;;;;;;;;;;;;;;;5.96;40.98;97089.72;5023722;28;19937;-70
2023/04/04 10:29:38;;;;;;;;;;;;;;;5.62;41.05;97072.41;5027325;28;19921;-70
2023/04/04 10:32:04;;;;;;;;;;;;;;;5.62;44.22;97075.13;5023879;28;19922;-72
2023/04/04 10:34:45;;;;;;;;;;;;;;;5.45;42.15;97073.22;5025841;28;19913;-70
2023/04/04 10:37:19;;;;;;;;;;;;;;;7.02;41.07;97077.00;4999946;28;19917;-68
2023/04/04 10:39:52;;;;;;;;;;;;;;;7.26;40.51;97079.84;5002382;28;19917;-70
2023/04/04 10:42:18;;;;;;;;;;;;;;;5.68;43.18;97084.69;5031430;28;19948;-69
2023/04/04 10:44:44;;;;;;;;;;;;;;;7.60;38.87;97093.47;5016088;28;19917;-71
2023/04/04 10:47:14;;;;;;;;;;;;;;;7.77;38.29;97089.72;5001475;28;19925;-72
2023/04/04 10:49:45;;;;;;;;;;;;;;;4.91;41.77;97079.06;5007924;28;20326;-69
2023/04/04 10:52:15;;;;;;;;;;;;;;;5.68;42.82;97075.72;5017158;28;20396;-70
2023/04/04 10:54:42;;;;;;;;;;;;;;;5.96;41.48;97084.28;5010255;28;20386;-70
2023/04/04 10:57:08;;;;;;;;;;;;;;;7.07;39.60;97074.09;5020944;28;19917;-70
2023/04/04 10:59:33;;;;;;;;;;;;;;;6.96;39.96;97073.69;5025706;28;20590;-71
2023/04/04 11:01:59;;;;;;;;;;;;;;;6.14;38.97;97060.53;5025723;28;19975;-70
2023/04/04 11:04:32;;;;;;;;;;;;;;;7.19;38.92;97068.69;4989488;28;20446;-70
2023/04/04 11:07:04;;;;;;;;;;;;;;;7.19;39.04;97057.78;4990120;28;19924;-69
2023/04/04 11:09:48;;;;;;;;;;;;;;;6.99;38.16;97064.09;5006637;28;19926;-71
2023/04/04 11:12:19;;;;;;;;;;;;;;;6.67;39.75;97067.19;5008271;28;19918;-71
2023/04/04 11:14:59;;;;;;;;;;;;;;;5.70;39.54;97057.97;5013380;28;20404;-71
2023/04/04 11:17:43;;;;;;;;;;;;;;;6.46;37.91;97064.50;5003051;28;20020;-71
2023/04/04 11:20:10;;;;;;;;;;;;;;;6.56;38.46;97065.22;5007588;28;19931;-71
2023/04/04 11:22:36;;;;;;;;;;;;;;;6.70;39.26;97052.16;5007310;28;19944;-70
2023/04/04 11:25:25;;;;;;;;;;;;;;;7.10;40.70;97059.81;4992260;28;19939;-71
2023/04/04 11:27:55;;;;;;;;;;;;;;;5.45;41.75;97065.09;4998595;28;19921;-71
2023/04/04 11:30:20;;;;;;;;;;;;;;;5.82;41.26;97051.84;5002591;28;20459;-71
2023/04/04 11:32:49;;;;;;;;;;;;;;;5.75;39.47;97068.66;5026233;28;19966;-71
2023/04/04 11:35:15;;;;;;;;;;;;;;;5.66;39.79;97054.31;5020694;28;19917;-70
2023/04/04 11:37:49;;;;;;;;;;;;;;;6.35;39.77;97052.38;5025289;28;19932;-70
2023/04/04 11:40:16;;;;;;;;;;;;;;;7.11;38.41;97053.22;5019042;28;20377;-69
2023/04/04 11:42:43;;;;;;;;;;;;;;;5.84;41.10;97060.47;5025705;28;19921;-71
2023/04/04 11:45:18;;;;;;;;;;;;;;;5.72;40.27;97052.22;5015710;28;20012;-71
2023/04/04 11:47:48;;;;;;;;;;;;;;;5.46;40.97;97053.09;5026146;28;19928;-70
2023/04/04 11:50:13;;;;;;;;;;;;;;;6.55;39.30;97050.81;5022490;28;19925;-72
2023/04/04 11:52:40;;;;;;;;;;;;;;;6.34;40.80;97055.44;5025802;28;19928;-70
2023/04/04 11:55:15;;;;;;;;;;;;;;;6.55;38.68;97050.00;5020656;28;20289;-71
2023/04/04 11:57:41;;;;;;;;;;;;;;;5.64;42.16;97059.28;5026950;28;19923;-70
2023/04/04 12:00:07;;;;;;;;;;;;;;;6.41;41.20;97058.41;5004644;28;19956;-71
2023/04/04 12:02:33;;;;;;;;;;;;;;;6.08;40.15;97051.75;5023471;28;20363;-69
2023/04/04 12:04:59;;;;;;;;;;;;;;;6.61;39.50;97049.50;4989048;28;19918;-71
2023/04/04 12:07:25;;;;;;;;;;;;;;;5.71;42.32;97042.47;4983985;28;20004;-70
2023/04/04 12:09:51;;;;;;;;;;;;;;;5.86;42.82;97043.84;5004160;28;19921;-69
2023/04/04 12:12:16;;;;;;;;;;;;;;;6.90;42.25;97045.09;4999841;28;19917;-70
2023/04/04 12:14:41;;;;;;;;;;;;;;;6.62;40.02;97055.72;5003656;28;19918;-70
2023/04/04 12:17:07;;;;;;;;;;;;;;;7.11;40.33;97049.69;4999882;28;20008;-70
2023/04/04 12:19:37;;;;;;;;;;;;;;;7.13;39.45;97050.97;5006056;28;20013;-69
2023/04/04 12:22:03;;;;;;;;;;;;;;;6.64;40.80;97042.56;5020388;28;19963;-71
2023/04/04 12:24:28;;;;;;;;;;;;;;;6.48;39.92;97037.75;5004054;28;19925;-70
2023/04/04 12:26:54;;;;;;;;;;;;;;;6.53;42.50;97049.56;5022564;28;19917;-70
2023/04/04 12:29:21;;;;;;;;;;;;;;;6.41;42.12;97026.59;5018826;28;19925;-69
2023/04/04 12:31:46;;;;;;;;;;;;;;;5.58;42.31;97046.19;5024910;28;19960;-68
2023/04/04 12:34:21;;;;;;;;;;;;;;;5.36;44.17;97039.88;5018757;28;19917;-70
2023/04/04 12:36:53;;;;;;;;;;;;;;;5.77;43.77;97046.59;5024984;28;20019;-70
2023/04/04 12:39:19;;;;;;;;;;;;;;;6.28;41.86;97042.03;5022694;28;19965;-70
2023/04/04 12:42:01;;;;;;;;;;;;;;;6.63;41.59;97047.22;5028414;28;19993;-70
2023/04/04 12:44:28;;;;;;;;;;;;;;;7.04;41.15;97048.31;5012343;28;19917;-70
2023/04/04 12:46:56;;;;;;;;;;;;;;;6.92;41.38;97047.47;5005308;28;19918;-70
2023/04/04 12:49:21;;;;;;;;;;;;;;;6.49;42.14;97046.69;5001173;28;19930;-69